sensor_id;sensor_type;location;lat;lon;timestamp;temperature;humidity
26342;DHT22;14054;50.108;8.640;2023-03-25T00:00:31;9.30;99.90
26342;DHT22;14054;50.108;8.640;2023-03-25T00:02:57;9.30;99.90
26342;DHT22;14054;50.108;8.640;2023-03-25T00:05:23;9.30;99.90
26342;DHT22;14054;50.108;8.640;2023-03-25T00:07:49;9.20;99.90
26342;DHT22;14054;50.108;8.640;2023-03-25T00:10:15;9.20;99.90
26342;DHT22;14054;50.108;8.640;2023-03-25T00:12:41;9.10;99.90
26342;DHT22;14054;50.108;8.640;2023-03-25T00:15:07;9.10;99.90
26342;DHT22;14054;50.108;8.640;2023-03-25T00:17:33;9.10;99.90
26342;DHT22;14054;50.108;8.640;2023-03-25T00:20:00;9.00;99.90
26342;DHT22;14054;50.108;8.640;2023-03-25T00:22:29;9.00;99.90
26342;DHT22;14054;50.108;8.640;2023-03-25T00:24:55;9.00;99.90
26342;DHT22;14054;50.108;8.640;2023-03-25T00:27:20;8.90;99.90
26342;DHT22;14054;50.108;8.640;2023-03-25T00:29:45;8.90;99.90
26342;DHT22;14054;50.108;8.640;2023-03-25T00:32:11;8.90;99.90
26342;DHT22;14054;50.108;8.640;2023-03-25T00:34:37;8.90;99.90
26342;DHT22;14054;50.108;8.640;2023-03-25T00:37:07;8.90;99.90
26342;DHT22;14054;50.108;8.640;2023-03-25T00:39:33;8.90;99.90
26342;DHT22;14054;50.108;8.640;2023-03-25T00:41:58;8.90;99.90
26342;DHT22;14054;50.108;8.640;2023-03-25T00:44:26;8.90;99.90
26342;DHT22;14054;50.108;8.640;2023-03-25T00:46:52;8.90;99.90
26342;DHT22;14054;50.108;8.640;2023-03-25T00:49:17;8.90;99.90
26342;DHT22;14054;50.108;8.640;2023-03-25T00:51:42;8.90;99.90
26342;DHT22;14054;50.108;8.640;2023-03-25T00:54:08;8.90;99.90
26342;DHT22;14054;50.108;8.640;2023-03-25T00:56:34;8.90;99.90
26342;DHT22;14054;50.108;8.640;2023-03-25T00:58:59;8.80;99.90
26342;DHT22;14054;50.108;8.640;2023-03-25T01:01:26;8.90;99.90
26342;DHT22;14054;50.108;8.640;2023-03-25T01:03:53;8.90;99.90
26342;DHT22;14054;50.108;8.640;2023-03-25T01:06:22;8.90;99.90
26342;DHT22;14054;50.108;8.640;2023-03-25T01:08:50;8.90;99.90
26342;DHT22;14054;50.108;8.640;2023-03-25T01:11:18;9.00;99.90
26342;DHT22;14054;50.108;8.640;2023-03-25T01:13:45;9.00;99.90
26342;DHT22;14054;50.108;8.640;2023-03-25T01:16:11;8.90;99.90
26342;DHT22;14054;50.108;8.640;2023-03-25T01:18:36;9.00;99.90
26342;DHT22;14054;50.108;8.640;2023-03-25T01:21:05;9.00;99.90
26342;DHT22;14054;50.108;8.640;2023-03-25T01:23:31;8.90;99.90
26342;DHT22;14054;50.108;8.640;2023-03-25T01:25:57;8.90;99.90
26342;DHT22;14054;50.108;8.640;2023-03-25T01:28:22;8.90;99.90
26342;DHT22;14054;50.108;8.640;2023-03-25T01:30:48;8.90;99.90
26342;DHT22;14054;50.108;8.640;2023-03-25T01:33:14;8.90;99.90
26342;DHT22;14054;50.108;8.640;2023-03-25T01:35:39;8.90;99.90
26342;DHT22;14054;50.108;8.640;2023-03-25T01:38:05;8.80;99.90
26342;DHT22;14054;50.108;8.640;2023-03-25T01:40:30;8.80;99.90
26342;DHT22;14054;50.108;8.640;2023-03-25T01:42:56;8.80;99.90
26342;DHT22;14054;50.108;8.640;2023-03-25T01:45:23;8.90;99.90
26342;DHT22;14054;50.108;8.640;2023-03-25T01:47:49;8.90;99.90
26342;DHT22;14054;50.108;8.640;2023-03-25T01:50:17;8.90;99.90
26342;DHT22;14054;50.108;8.640;2023-03-25T01:52:43;8.90;99.90
26342;DHT22;14054;50.108;8.640;2023-03-25T01:55:09;8.90;99.90
26342;DHT22;14054;50.108;8.640;2023-03-25T01:57:35;9.00;99.90
26342;DHT22;14054;50.108;8.640;2023-03-25T02:00:03;8.90;99.90
26342;DHT22;14054;50.108;8.640;2023-03-25T02:02:33;9.00;99.90
26342;DHT22;14054;50.108;8.640;2023-03-25T02:05:02;9.00;99.90
26342;DHT22;14054;50.108;8.640;2023-03-25T02:07:32;9.00;99.90
26342;DHT22;14054;50.108;8.640;2023-03-25T02:10:00;9.00;99.90
26342;DHT22;14054;50.108;8.640;2023-03-25T02:12:26;9.00;99.90
26342;DHT22;14054;50.108;8.640;2023-03-25T02:14:52;9.00;99.90
26342;DHT22;14054;50.108;8.640;2023-03-25T02:17:21;9.00;99.90
26342;DHT22;14054;50.108;8.640;2023-03-25T02:22:49;9.00;99.90
26342;DHT22;14054;50.108;8.640;2023-03-25T02:30:34;9.00;99.90
26342;DHT22;14054;50.108;8.640;2023-03-25T02:33:20;9.00;99.90
26342;DHT22;14054;50.108;8.640;2023-03-25T02:36:16;8.90;99.90
26342;DHT22;14054;50.108;8.640;2023-03-25T02:38:48;8.90;99.90
26342;DHT22;14054;50.108;8.640;2023-03-25T02:41:16;8.90;99.90
26342;DHT22;14054;50.108;8.640;2023-03-25T02:43:56;8.90;99.90
26342;DHT22;14054;50.108;8.640;2023-03-25T02:46:25;8.90;99.90
26342;DHT22;14054;50.108;8.640;2023-03-25T02:48:53;8.90;99.90
26342;DHT22;14054;50.108;8.640;2023-03-25T02:51:22;8.90;99.90
26342;DHT22;14054;50.108;8.640;2023-03-25T02:53:49;8.90;99.90
26342;DHT22;14054;50.108;8.640;2023-03-25T02:56:15;8.90;99.90
26342;DHT22;14054;50.108;8.640;2023-03-25T02:58:41;8.90;99.90
26342;DHT22;14054;50.108;8.640;2023-03-25T03:01:08;8.90;99.90
26342;DHT22;14054;50.108;8.640;2023-03-25T03:03:34;8.90;99.90
26342;DHT22;14054;50.108;8.640;2023-03-25T03:06:00;8.90;99.90
26342;DHT22;14054;50.108;8.640;2023-03-25T03:18:43;9.00;99.90
26342;DHT22;14054;50.108;8.640;2023-03-25T03:21:13;9.00;99.90
26342;DHT22;14054;50.108;8.640;2023-03-25T03:23:47;9.00;99.90
26342;DHT22;14054;50.108;8.640;2023-03-25T03:28:47;9.00;99.90
26342;DHT22;14054;50.108;8.640;2023-03-25T03:31:15;9.10;99.90
26342;DHT22;14054;50.108;8.640;2023-03-25T03:33:46;9.10;99.90
26342;DHT22;14054;50.108;8.640;2023-03-25T03:36:22;9.10;99.90
26342;DHT22;14054;50.108;8.640;2023-03-25T03:38:50;9.10;99.90
26342;DHT22;14054;50.108;8.640;2023-03-25T03:41:17;9.10;99.90
26342;DHT22;14054;50.108;8.640;2023-03-25T03:43:49;9.20;99.90
26342;DHT22;14054;50.108;8.640;2023-03-25T03:46:22;9.20;99.90
26342;DHT22;14054;50.108;8.640;2023-03-25T03:48:50;9.20;99.90
26342;DHT22;14054;50.108;8.640;2023-03-25T03:51:17;9.20;99.90
26342;DHT22;14054;50.108;8.640;2023-03-25T03:53:50;9.20;99.90
26342;DHT22;14054;50.108;8.640;2023-03-25T03:56:21;9.10;99.90
26342;DHT22;14054;50.108;8.640;2023-03-25T03:58:47;9.10;99.90
26342;DHT22;14054;50.108;8.640;2023-03-25T04:01:21;9.10;99.90
26342;DHT22;14054;50.108;8.640;2023-03-25T04:03:56;9.00;99.90
26342;DHT22;14054;50.108;8.640;2023-03-25T04:06:23;8.90;99.90
26342;DHT22;14054;50.108;8.640;2023-03-25T04:08:59;8.90;99.90
26342;DHT22;14054;50.108;8.640;2023-03-25T04:11:31;8.80;99.90
26342;DHT22;14054;50.108;8.640;2023-03-25T04:13:58;8.80;99.90
26342;DHT22;14054;50.108;8.640;2023-03-25T04:16:25;8.80;99.90
26342;DHT22;14054;50.108;8.640;2023-03-25T04:18:52;8.70;99.90
26342;DHT22;14054;50.108;8.640;2023-03-25T04:21:19;8.70;99.90
26342;DHT22;14054;50.108;8.640;2023-03-25T04:23:45;8.70;99.90
26342;DHT22;14054;50.108;8.640;2023-03-25T04:26:11;8.60;99.90
26342;DHT22;14054;50.108;8.640;2023-03-25T04:28:39;8.60;99.90
26342;DHT22;14054;50.108;8.640;2023-03-25T04:31:12;8.60;99.90
26342;DHT22;14054;50.108;8.640;2023-03-25T04:33:40;8.60;99.90
26342;DHT22;14054;50.108;8.640;2023-03-25T04:36:05;8.60;99.90
26342;DHT22;14054;50.108;8.640;2023-03-25T04:38:31;8.60;99.90
26342;DHT22;14054;50.108;8.640;2023-03-25T04:40:56;8.60;99.90
26342;DHT22;14054;50.108;8.640;2023-03-25T04:43:22;8.60;99.90
26342;DHT22;14054;50.108;8.640;2023-03-25T04:45:47;8.60;99.90
26342;DHT22;14054;50.108;8.640;2023-03-25T04:48:36;8.70;99.90
26342;DHT22;14054;50.108;8.640;2023-03-25T04:51:05;8.60;99.90
26342;DHT22;14054;50.108;8.640;2023-03-25T04:53:31;8.70;99.90
26342;DHT22;14054;50.108;8.640;2023-03-25T04:55:56;8.70;99.90
26342;DHT22;14054;50.108;8.640;2023-03-25T04:58:22;8.70;99.90
26342;DHT22;14054;50.108;8.640;2023-03-25T05:00:49;8.70;99.90
26342;DHT22;14054;50.108;8.640;2023-03-25T05:03:15;8.70;99.90
26342;DHT22;14054;50.108;8.640;2023-03-25T05:05:41;8.70;99.90
26342;DHT22;14054;50.108;8.640;2023-03-25T05:08:06;8.70;99.90
26342;DHT22;14054;50.108;8.640;2023-03-25T05:10:32;8.70;99.90
26342;DHT22;14054;50.108;8.640;2023-03-25T05:12:59;8.70;99.90
26342;DHT22;14054;50.108;8.640;2023-03-25T05:15:24;8.70;99.90
26342;DHT22;14054;50.108;8.640;2023-03-25T05:17:50;8.70;99.90
26342;DHT22;14054;50.108;8.640;2023-03-25T05:20:16;8.70;99.90
26342;DHT22;14054;50.108;8.640;2023-03-25T05:22:41;8.80;99.90
26342;DHT22;14054;50.108;8.640;2023-03-25T05:25:07;8.80;99.90
26342;DHT22;14054;50.108;8.640;2023-03-25T05:27:34;8.70;99.90
26342;DHT22;14054;50.108;8.640;2023-03-25T05:30:00;8.80;99.90
26342;DHT22;14054;50.108;8.640;2023-03-25T05:32:26;8.80;99.90
26342;DHT22;14054;50.108;8.640;2023-03-25T05:34:54;8.70;99.90
26342;DHT22;14054;50.108;8.640;2023-03-25T05:37:20;8.70;99.90
26342;DHT22;14054;50.108;8.640;2023-03-25T05:39:45;8.70;99.90
26342;DHT22;14054;50.108;8.640;2023-03-25T05:42:11;8.60;99.90
26342;DHT22;14054;50.108;8.640;2023-03-25T05:44:36;8.60;99.90
26342;DHT22;14054;50.108;8.640;2023-03-25T05:47:03;8.60;99.90
26342;DHT22;14054;50.108;8.640;2023-03-25T05:49:28;8.60;99.90
26342;DHT22;14054;50.108;8.640;2023-03-25T05:51:54;8.60;99.90
26342;DHT22;14054;50.108;8.640;2023-03-25T05:54:19;8.50;99.90
26342;DHT22;14054;50.108;8.640;2023-03-25T05:56:45;8.60;99.90
26342;DHT22;14054;50.108;8.640;2023-03-25T05:59:10;8.60;99.90
26342;DHT22;14054;50.108;8.640;2023-03-25T06:01:38;8.60;99.90
26342;DHT22;14054;50.108;8.640;2023-03-25T06:04:06;8.70;99.90
26342;DHT22;14054;50.108;8.640;2023-03-25T06:06:34;8.70;99.90
26342;DHT22;14054;50.108;8.640;2023-03-25T06:09:00;8.70;99.90
26342;DHT22;14054;50.108;8.640;2023-03-25T06:11:25;8.80;99.90
26342;DHT22;14054;50.108;8.640;2023-03-25T06:13:51;8.80;99.90
26342;DHT22;14054;50.108;8.640;2023-03-25T06:16:17;8.90;99.90
26342;DHT22;14054;50.108;8.640;2023-03-25T06:18:43;8.90;99.90
26342;DHT22;14054;50.108;8.640;2023-03-25T06:21:09;8.90;99.90
26342;DHT22;14054;50.108;8.640;2023-03-25T06:23:35;9.00;99.90
26342;DHT22;14054;50.108;8.640;2023-03-25T06:26:03;9.10;99.90
26342;DHT22;14054;50.108;8.640;2023-03-25T06:28:29;9.10;99.90
26342;DHT22;14054;50.108;8.640;2023-03-25T06:30:54;9.10;99.90
26342;DHT22;14054;50.108;8.640;2023-03-25T06:33:19;9.10;99.90
26342;DHT22;14054;50.108;8.640;2023-03-25T06:35:46;9.10;99.90
26342;DHT22;14054;50.108;8.640;2023-03-25T06:38:14;9.20;99.90
26342;DHT22;14054;50.108;8.640;2023-03-25T06:40:39;9.20;99.90
26342;DHT22;14054;50.108;8.640;2023-03-25T06:43:04;9.20;99.90
26342;DHT22;14054;50.108;8.640;2023-03-25T06:45:30;9.20;99.90
26342;DHT22;14054;50.108;8.640;2023-03-25T06:47:56;9.20;99.90
26342;DHT22;14054;50.108;8.640;2023-03-25T06:50:21;9.10;99.90
26342;DHT22;14054;50.108;8.640;2023-03-25T06:52:47;9.20;99.90
26342;DHT22;14054;50.108;8.640;2023-03-25T06:55:12;9.20;99.90
26342;DHT22;14054;50.108;8.640;2023-03-25T06:57:38;9.20;99.90
26342;DHT22;14054;50.108;8.640;2023-03-25T07:00:04;9.20;99.90
26342;DHT22;14054;50.108;8.640;2023-03-25T07:02:30;9.20;99.90
26342;DHT22;14054;50.108;8.640;2023-03-25T07:04:55;9.20;99.90
26342;DHT22;14054;50.108;8.640;2023-03-25T07:07:21;9.30;99.90
26342;DHT22;14054;50.108;8.640;2023-03-25T07:09:50;9.20;99.90
26342;DHT22;14054;50.108;8.640;2023-03-25T07:12:16;9.30;99.90
26342;DHT22;14054;50.108;8.640;2023-03-25T07:14:41;9.20;99.90
26342;DHT22;14054;50.108;8.640;2023-03-25T07:17:08;9.30;99.90
26342;DHT22;14054;50.108;8.640;2023-03-25T07:19:33;9.30;99.90
26342;DHT22;14054;50.108;8.640;2023-03-25T07:21:59;9.30;99.90
26342;DHT22;14054;50.108;8.640;2023-03-25T07:24:24;9.40;99.90
26342;DHT22;14054;50.108;8.640;2023-03-25T07:26:50;9.40;99.90
26342;DHT22;14054;50.108;8.640;2023-03-25T07:29:15;9.70;99.90
26342;DHT22;14054;50.108;8.640;2023-03-25T07:31:41;9.90;99.90
26342;DHT22;14054;50.108;8.640;2023-03-25T07:34:06;9.80;99.90
26342;DHT22;14054;50.108;8.640;2023-03-25T07:36:32;9.80;99.90
26342;DHT22;14054;50.108;8.640;2023-03-25T07:38:58;9.80;99.90
26342;DHT22;14054;50.108;8.640;2023-03-25T07:41:23;9.90;99.90
26342;DHT22;14054;50.108;8.640;2023-03-25T07:43:49;9.80;99.90
26342;DHT22;14054;50.108;8.640;2023-03-25T07:46:15;9.80;99.90
26342;DHT22;14054;50.108;8.640;2023-03-25T07:48:41;9.80;99.90
26342;DHT22;14054;50.108;8.640;2023-03-25T07:51:06;9.90;99.90
26342;DHT22;14054;50.108;8.640;2023-03-25T07:53:33;9.90;99.90
26342;DHT22;14054;50.108;8.640;2023-03-25T07:55:58;10.00;99.90
26342;DHT22;14054;50.108;8.640;2023-03-25T07:58:24;10.30;99.90
26342;DHT22;14054;50.108;8.640;2023-03-25T08:00:49;10.20;99.90
26342;DHT22;14054;50.108;8.640;2023-03-25T08:03:14;10.60;99.90
26342;DHT22;14054;50.108;8.640;2023-03-25T08:05:46;10.90;99.90
26342;DHT22;14054;50.108;8.640;2023-03-25T08:08:12;11.10;99.90
26342;DHT22;14054;50.108;8.640;2023-03-25T08:10:39;11.00;99.90
26342;DHT22;14054;50.108;8.640;2023-03-25T08:13:07;10.90;99.90
26342;DHT22;14054;50.108;8.640;2023-03-25T08:15:32;11.00;99.90
26342;DHT22;14054;50.108;8.640;2023-03-25T08:17:57;11.20;99.90
26342;DHT22;14054;50.108;8.640;2023-03-25T08:20:23;11.20;99.90
26342;DHT22;14054;50.108;8.640;2023-03-25T08:22:48;11.10;99.90
26342;DHT22;14054;50.108;8.640;2023-03-25T08:25:14;11.00;99.90
26342;DHT22;14054;50.108;8.640;2023-03-25T08:27:39;11.10;99.90
26342;DHT22;14054;50.108;8.640;2023-03-25T08:30:05;11.10;99.90
26342;DHT22;14054;50.108;8.640;2023-03-25T08:32:34;11.20;99.90
26342;DHT22;14054;50.108;8.640;2023-03-25T08:35:00;11.20;99.90
26342;DHT22;14054;50.108;8.640;2023-03-25T08:37:27;11.40;99.90
26342;DHT22;14054;50.108;8.640;2023-03-25T08:39:54;11.60;99.90
26342;DHT22;14054;50.108;8.640;2023-03-25T08:42:20;11.90;99.90
26342;DHT22;14054;50.108;8.640;2023-03-25T08:44:45;12.20;99.90
26342;DHT22;14054;50.108;8.640;2023-03-25T08:47:11;12.40;99.90
26342;DHT22;14054;50.108;8.640;2023-03-25T08:49:36;12.30;99.90
26342;DHT22;14054;50.108;8.640;2023-03-25T08:52:02;11.90;99.90
26342;DHT22;14054;50.108;8.640;2023-03-25T08:54:28;11.60;99.90
26342;DHT22;14054;50.108;8.640;2023-03-25T08:56:54;11.50;99.90
26342;DHT22;14054;50.108;8.640;2023-03-25T08:59:20;11.70;99.90
26342;DHT22;14054;50.108;8.640;2023-03-25T09:01:46;11.60;99.90
26342;DHT22;14054;50.108;8.640;2023-03-25T09:04:11;11.80;99.90
26342;DHT22;14054;50.108;8.640;2023-03-25T09:06:37;11.70;99.90
26342;DHT22;14054;50.108;8.640;2023-03-25T09:09:03;11.70;99.90
26342;DHT22;14054;50.108;8.640;2023-03-25T09:11:30;11.60;99.90
26342;DHT22;14054;50.108;8.640;2023-03-25T09:13:55;11.70;99.90
26342;DHT22;14054;50.108;8.640;2023-03-25T09:16:21;11.50;99.90
26342;DHT22;14054;50.108;8.640;2023-03-25T09:18:46;11.60;99.90
26342;DHT22;14054;50.108;8.640;2023-03-25T09:21:12;11.70;99.90
26342;DHT22;14054;50.108;8.640;2023-03-25T09:23:37;11.80;99.90
26342;DHT22;14054;50.108;8.640;2023-03-25T09:26:03;11.80;99.90
26342;DHT22;14054;50.108;8.640;2023-03-25T09:28:29;11.80;99.90
26342;DHT22;14054;50.108;8.640;2023-03-25T09:30:55;11.90;99.90
26342;DHT22;14054;50.108;8.640;2023-03-25T09:33:21;12.00;99.90
26342;DHT22;14054;50.108;8.640;2023-03-25T09:35:47;12.40;99.90
26342;DHT22;14054;50.108;8.640;2023-03-25T09:38:13;12.80;99.90
26342;DHT22;14054;50.108;8.640;2023-03-25T09:40:41;12.60;99.90
26342;DHT22;14054;50.108;8.640;2023-03-25T09:45:45;12.10;99.90
26342;DHT22;14054;50.108;8.640;2023-03-25T09:48:19;11.90;99.90
26342;DHT22;14054;50.108;8.640;2023-03-25T09:50:46;11.60;99.90
26342;DHT22;14054;50.108;8.640;2023-03-25T09:53:26;11.10;99.90
26342;DHT22;14054;50.108;8.640;2023-03-25T09:55:53;9.40;99.90
26342;DHT22;14054;50.108;8.640;2023-03-25T10:01:02;7.00;99.90
26342;DHT22;14054;50.108;8.640;2023-03-25T10:03:36;7.00;99.90
26342;DHT22;14054;50.108;8.640;2023-03-25T10:06:14;7.10;99.90
26342;DHT22;14054;50.108;8.640;2023-03-25T10:14:14;8.20;99.90
26342;DHT22;14054;50.108;8.640;2023-03-25T10:19:18;9.10;99.90
26342;DHT22;14054;50.108;8.640;2023-03-25T10:22:03;9.50;99.90
26342;DHT22;14054;50.108;8.640;2023-03-25T10:24:45;9.80;99.90
26342;DHT22;14054;50.108;8.640;2023-03-25T10:32:11;9.60;99.90
26342;DHT22;14054;50.108;8.640;2023-03-25T10:34:42;9.90;99.90
26342;DHT22;14054;50.108;8.640;2023-03-25T10:37:11;10.20;99.90
26342;DHT22;14054;50.108;8.640;2023-03-25T10:39:37;10.40;99.90
26342;DHT22;14054;50.108;8.640;2023-03-25T10:44:49;11.20;99.90
26342;DHT22;14054;50.108;8.640;2023-03-25T10:47:16;11.30;99.90
26342;DHT22;14054;50.108;8.640;2023-03-25T10:49:42;11.50;99.90
26342;DHT22;14054;50.108;8.640;2023-03-25T10:52:09;11.90;99.90
26342;DHT22;14054;50.108;8.640;2023-03-25T10:54:35;12.10;99.90
26342;DHT22;14054;50.108;8.640;2023-03-25T10:57:02;11.60;99.90
26342;DHT22;14054;50.108;8.640;2023-03-25T11:00:04;11.60;99.90
26342;DHT22;14054;50.108;8.640;2023-03-25T11:02:21;12.00;99.90
26342;DHT22;14054;50.108;8.640;2023-03-25T11:04:51;12.30;99.90
26342;DHT22;14054;50.108;8.640;2023-03-25T11:07:27;12.70;99.90
26342;DHT22;14054;50.108;8.640;2023-03-25T11:10:07;12.70;99.90
26342;DHT22;14054;50.108;8.640;2023-03-25T11:12:34;13.20;99.90
26342;DHT22;14054;50.108;8.640;2023-03-25T11:14:59;13.90;99.90
26342;DHT22;14054;50.108;8.640;2023-03-25T11:17:26;14.80;99.90
26342;DHT22;14054;50.108;8.640;2023-03-25T11:19:52;15.70;99.90
26342;DHT22;14054;50.108;8.640;2023-03-25T11:22:26;16.10;99.90
26342;DHT22;14054;50.108;8.640;2023-03-25T11:24:57;16.80;99.90
26342;DHT22;14054;50.108;8.640;2023-03-25T11:27:24;18.20;99.90
26342;DHT22;14054;50.108;8.640;2023-03-25T11:32:34;17.70;99.90
26342;DHT22;14054;50.108;8.640;2023-03-25T11:35:02;18.50;99.90
26342;DHT22;14054;50.108;8.640;2023-03-25T11:37:31;19.40;97.70
26342;DHT22;14054;50.108;8.640;2023-03-25T11:40:03;19.90;93.60
26342;DHT22;14054;50.108;8.640;2023-03-25T11:42:30;18.40;92.70
26342;DHT22;14054;50.108;8.640;2023-03-25T11:44:56;17.30;95.20
26342;DHT22;14054;50.108;8.640;2023-03-25T11:47:35;16.50;99.10
26342;DHT22;14054;50.108;8.640;2023-03-25T11:50:01;17.30;98.30
26342;DHT22;14054;50.108;8.640;2023-03-25T11:52:30;16.50;96.70
26342;DHT22;14054;50.108;8.640;2023-03-25T11:54:56;16.30;99.60
26342;DHT22;14054;50.108;8.640;2023-03-25T11:57:22;15.80;99.80
26342;DHT22;14054;50.108;8.640;2023-03-25T11:59:48;17.00;97.10
26342;DHT22;14054;50.108;8.640;2023-03-25T12:05:31;15.90;99.30
26342;DHT22;14054;50.108;8.640;2023-03-25T12:07:42;15.10;99.90
26342;DHT22;14054;50.108;8.640;2023-03-25T12:10:13;15.20;99.80
26342;DHT22;14054;50.108;8.640;2023-03-25T12:12:42;16.00;96.10
26342;DHT22;14054;50.108;8.640;2023-03-25T12:15:23;16.50;94.50
26342;DHT22;14054;50.108;8.640;2023-03-25T12:17:54;18.40;89.60
26342;DHT22;14054;50.108;8.640;2023-03-25T12:33:16;21.50;61.20
26342;DHT22;14054;50.108;8.640;2023-03-25T12:36:03;22.30;58.50
26342;DHT22;14054;50.108;8.640;2023-03-25T12:38:48;22.80;56.00
26342;DHT22;14054;50.108;8.640;2023-03-25T12:43:52;20.50;58.00
26342;DHT22;14054;50.108;8.640;2023-03-25T12:48:53;21.60;57.00
26342;DHT22;14054;50.108;8.640;2023-03-25T12:51:24;21.60;55.70
26342;DHT22;14054;50.108;8.640;2023-03-25T12:53:59;21.60;55.70
26342;DHT22;14054;50.108;8.640;2023-03-25T12:56:38;21.30;56.70
26342;DHT22;14054;50.108;8.640;2023-03-25T13:04:24;23.70;52.70
26342;DHT22;14054;50.108;8.640;2023-03-25T13:07:07;21.90;53.00
26342;DHT22;14054;50.108;8.640;2023-03-25T13:15:05;17.10;71.70
26342;DHT22;14054;50.108;8.640;2023-03-25T13:17:33;16.60;79.00
26342;DHT22;14054;50.108;8.640;2023-03-25T13:20:01;16.50;82.50
26342;DHT22;14054;50.108;8.640;2023-03-25T13:22:32;17.90;82.80
26342;DHT22;14054;50.108;8.640;2023-03-25T13:25:00;19.40;77.50
26342;DHT22;14054;50.108;8.640;2023-03-25T13:27:31;19.70;74.30
26342;DHT22;14054;50.108;8.640;2023-03-25T13:29:58;18.20;80.80
26342;DHT22;14054;50.108;8.640;2023-03-25T13:32:26;16.50;91.00
26342;DHT22;14054;50.108;8.640;2023-03-25T13:34:56;15.90;96.50
26342;DHT22;14054;50.108;8.640;2023-03-25T13:37:34;15.50;97.30
26342;DHT22;14054;50.108;8.640;2023-03-25T13:45:16;20.30;70.20
26342;DHT22;14054;50.108;8.640;2023-03-25T13:47:43;21.50;62.70
26342;DHT22;14054;50.108;8.640;2023-03-25T13:50:14;20.90;61.50
26342;DHT22;14054;50.108;8.640;2023-03-25T13:52:42;21.30;60.60
26342;DHT22;14054;50.108;8.640;2023-03-25T13:55:10;21.00;60.30
26342;DHT22;14054;50.108;8.640;2023-03-25T14:00:37;18.60;70.20
26342;DHT22;14054;50.108;8.640;2023-03-25T14:08:21;17.10;86.50
26342;DHT22;14054;50.108;8.640;2023-03-25T14:13:25;16.00;92.70
26342;DHT22;14054;50.108;8.640;2023-03-25T14:16:02;16.10;92.00
26342;DHT22;14054;50.108;8.640;2023-03-25T14:18:30;16.10;92.60
26342;DHT22;14054;50.108;8.640;2023-03-25T14:20:57;16.20;92.00
26342;DHT22;14054;50.108;8.640;2023-03-25T14:23:23;16.40;91.90
26342;DHT22;14054;50.108;8.640;2023-03-25T14:25:55;16.30;88.60
26342;DHT22;14054;50.108;8.640;2023-03-25T14:28:38;15.80;87.20
26342;DHT22;14054;50.108;8.640;2023-03-25T14:31:08;15.70;87.70
26342;DHT22;14054;50.108;8.640;2023-03-25T14:36:26;15.30;84.70
26342;DHT22;14054;50.108;8.640;2023-03-25T14:38:53;15.10;87.90
26342;DHT22;14054;50.108;8.640;2023-03-25T14:44:16;15.10;86.90
26342;DHT22;14054;50.108;8.640;2023-03-25T14:46:43;15.20;86.10
26342;DHT22;14054;50.108;8.640;2023-03-25T14:51:43;15.20;86.00
26342;DHT22;14054;50.108;8.640;2023-03-25T14:56:41;15.20;87.30
26342;DHT22;14054;50.108;8.640;2023-03-25T14:59:08;15.10;87.00
26342;DHT22;14054;50.108;8.640;2023-03-25T15:01:35;14.90;88.10
26342;DHT22;14054;50.108;8.640;2023-03-25T15:04:14;14.90;88.40
26342;DHT22;14054;50.108;8.640;2023-03-25T15:06:41;14.90;89.20
26342;DHT22;14054;50.108;8.640;2023-03-25T15:09:07;15.00;89.00
26342;DHT22;14054;50.108;8.640;2023-03-25T15:11:34;15.00;87.50
26342;DHT22;14054;50.108;8.640;2023-03-25T15:14:20;14.90;87.60
26342;DHT22;14054;50.108;8.640;2023-03-25T15:19:17;14.70;84.80
26342;DHT22;14054;50.108;8.640;2023-03-25T15:24:33;14.60;86.60
26342;DHT22;14054;50.108;8.640;2023-03-25T15:29:34;14.60;85.10
26342;DHT22;14054;50.108;8.640;2023-03-25T15:32:09;14.60;85.60
26342;DHT22;14054;50.108;8.640;2023-03-25T15:34:58;14.50;84.10
26342;DHT22;14054;50.108;8.640;2023-03-25T15:37:50;14.50;83.20
26342;DHT22;14054;50.108;8.640;2023-03-25T15:40:29;14.50;84.90
26342;DHT22;14054;50.108;8.640;2023-03-25T15:43:08;14.40;84.80
26342;DHT22;14054;50.108;8.640;2023-03-25T15:48:20;14.30;84.50
26342;DHT22;14054;50.108;8.640;2023-03-25T15:53:42;14.30;85.90
26342;DHT22;14054;50.108;8.640;2023-03-25T15:56:15;14.20;88.00
26342;DHT22;14054;50.108;8.640;2023-03-25T15:58:53;14.20;90.00
26342;DHT22;14054;50.108;8.640;2023-03-25T16:01:22;14.20;90.10
26342;DHT22;14054;50.108;8.640;2023-03-25T16:03:55;14.10;90.90
26342;DHT22;14054;50.108;8.640;2023-03-25T16:06:21;14.10;91.70
26342;DHT22;14054;50.108;8.640;2023-03-25T16:08:48;14.10;92.20
26342;DHT22;14054;50.108;8.640;2023-03-25T16:13:45;14.00;92.20
26342;DHT22;14054;50.108;8.640;2023-03-25T16:16:11;13.90;91.90
26342;DHT22;14054;50.108;8.640;2023-03-25T16:18:38;13.90;91.90
26342;DHT22;14054;50.108;8.640;2023-03-25T16:21:05;13.90;92.20
26342;DHT22;14054;50.108;8.640;2023-03-25T16:23:31;13.90;92.00
26342;DHT22;14054;50.108;8.640;2023-03-25T16:25:57;13.90;92.60
26342;DHT22;14054;50.108;8.640;2023-03-25T16:28:25;13.90;93.20
26342;DHT22;14054;50.108;8.640;2023-03-25T16:30:51;13.90;95.50
26342;DHT22;14054;50.108;8.640;2023-03-25T16:33:18;13.90;94.90
26342;DHT22;14054;50.108;8.640;2023-03-25T16:35:48;13.70;95.60
26342;DHT22;14054;50.108;8.640;2023-03-25T16:38:17;13.60;96.60
26342;DHT22;14054;50.108;8.640;2023-03-25T16:40:44;13.60;97.40
26342;DHT22;14054;50.108;8.640;2023-03-25T16:45:45;13.30;99.10
26342;DHT22;14054;50.108;8.640;2023-03-25T16:48:16;13.20;99.80
26342;DHT22;14054;50.108;8.640;2023-03-25T16:50:43;13.20;99.90
26342;DHT22;14054;50.108;8.640;2023-03-25T16:53:11;13.10;99.90
26342;DHT22;14054;50.108;8.640;2023-03-25T16:55:47;13.00;99.90
26342;DHT22;14054;50.108;8.640;2023-03-25T16:58:20;12.90;99.90
26342;DHT22;14054;50.108;8.640;2023-03-25T17:00:47;12.90;99.90
26342;DHT22;14054;50.108;8.640;2023-03-25T17:03:14;13.00;99.90
26342;DHT22;14054;50.108;8.640;2023-03-25T17:05:50;12.80;99.90
26342;DHT22;14054;50.108;8.640;2023-03-25T17:08:16;12.80;99.90
26342;DHT22;14054;50.108;8.640;2023-03-25T17:10:45;12.80;99.90
26342;DHT22;14054;50.108;8.640;2023-03-25T17:13:14;12.80;99.90
26342;DHT22;14054;50.108;8.640;2023-03-25T17:15:41;12.80;99.90
26342;DHT22;14054;50.108;8.640;2023-03-25T17:18:11;12.70;99.90
26342;DHT22;14054;50.108;8.640;2023-03-25T17:20:40;12.70;99.90
26342;DHT22;14054;50.108;8.640;2023-03-25T17:28:22;12.60;99.90
26342;DHT22;14054;50.108;8.640;2023-03-25T17:30:48;12.60;99.90
26342;DHT22;14054;50.108;8.640;2023-03-25T17:33:18;12.50;99.90
26342;DHT22;14054;50.108;8.640;2023-03-25T17:35:46;12.50;99.90
26342;DHT22;14054;50.108;8.640;2023-03-25T17:38:22;12.50;99.90
26342;DHT22;14054;50.108;8.640;2023-03-25T17:40:56;12.50;99.90
26342;DHT22;14054;50.108;8.640;2023-03-25T17:43:21;12.40;99.90
26342;DHT22;14054;50.108;8.640;2023-03-25T17:45:48;12.40;99.90
26342;DHT22;14054;50.108;8.640;2023-03-25T17:48:14;12.40;99.90
26342;DHT22;14054;50.108;8.640;2023-03-25T17:50:48;12.40;99.90